Time;durP1;ratioP1;P1;durP2;ratioP2;P2;SDS_P1;SDS_P2;PMS_P1;PMS_P2;Temp;Humidity;BMP_temperature;BMP_pressure;BME280_temperature;BME280_humidity;BME280_pressure;Samples;Min_cycle;Max_cycle;Signal;HPM_P1;HPM_P2
2022/07/09 00:01:47;;;;;;;9.05;3.38;;;11.00;99.90;;;;;;5014296;28;20037;-84
2022/07/09 00:04:13;;;;;;;7.22;4.03;;;11.10;99.90;;;;;;5014027;28;20592;-82
2022/07/09 00:06:38;;;;;;;15.27;4.32;;;11.20;99.90;;;;;;5013211;28;20084;-83
2022/07/09 00:09:04;;;;;;;10.68;4.50;;;11.30;99.90;;;;;;5011852;28;20022;-82
2022/07/09 00:11:30;;;;;;;6.63;4.05;;;11.40;99.90;;;;;;5014306;28;20500;-83
2022/07/09 00:13:55;;;;;;;6.25;3.95;;;11.50;99.90;;;;;;5014807;28;20038;-83
2022/07/09 00:16:21;;;;;;;9.10;3.67;;;11.50;99.90;;;;;;5014362;28;20068;-80
2022/07/09 00:18:47;;;;;;;8.35;4.28;;;11.60;99.90;;;;;;5012791;28;20500;-82
2022/07/09 00:21:12;;;;;;;7.85;4.13;;;11.60;99.90;;;;;;5013309;28;20026;-80
2022/07/09 00:23:38;;;;;;;10.85;3.80;;;11.70;99.90;;;;;;5013991;28;20045;-83
2022/07/09 00:26:04;;;;;;;16.95;4.30;;;11.70;99.90;;;;;;5012697;28;20025;-81
2022/07/09 00:28:29;;;;;;;10.40;4.20;;;11.80;99.90;;;;;;5013858;28;20389;-83
2022/07/09 00:30:55;;;;;;;5.38;3.58;;;11.90;99.90;;;;;;5013606;28;20046;-82
2022/07/09 00:33:21;;;;;;;7.53;3.53;;;12.00;99.90;;;;;;5012437;28;20474;-83
2022/07/09 00:35:47;;;;;;;10.35;3.75;;;12.10;99.90;;;;;;5013075;28;20064;-82
2022/07/09 00:38:12;;;;;;;6.53;4.28;;;12.20;99.90;;;;;;5013499;28;20026;-82
2022/07/09 00:40:38;;;;;;;8.88;4.53;;;12.20;99.90;;;;;;5013622;28;20037;-83
2022/07/09 00:43:14;;;;;;;12.98;4.25;;;12.30;99.90;;;;;;5013859;28;20033;-84
2022/07/09 00:45:39;;;;;;;12.13;4.32;;;12.30;99.90;;;;;;5013002;28;20029;-80
2022/07/09 00:48:05;;;;;;;9.98;3.97;;;12.40;99.90;;;;;;5013437;28;20064;-80
2022/07/09 00:50:31;;;;;;;8.40;3.53;;;12.40;99.90;;;;;;5013174;28;20030;-83
2022/07/09 00:52:57;;;;;;;5.07;4.57;;;12.40;99.90;;;;;;5012435;28;20105;-80
2022/07/09 00:55:23;;;;;;;12.98;4.25;;;12.40;99.90;;;;;;5013073;28;20222;-80
2022/07/09 00:57:49;;;;;;;8.30;3.70;;;12.40;99.90;;;;;;5013294;28;20037;-83
2022/07/09 01:00:14;;;;;;;5.07;3.33;;;12.40;99.90;;;;;;5011364;28;20037;-81
2022/07/09 01:02:41;;;;;;;5.45;3.53;;;12.50;99.90;;;;;;5011923;28;20125;-84
2022/07/09 01:05:07;;;;;;;5.88;3.33;;;12.50;99.90;;;;;;5013000;28;20069;-81
2022/07/09 01:07:33;;;;;;;8.80;3.22;;;12.60;99.90;;;;;;5012481;28;20542;-82
2022/07/09 01:09:59;;;;;;;11.73;4.85;;;12.80;99.90;;;;;;5011641;28;20114;-83
2022/07/09 01:12:25;;;;;;;4.28;3.58;;;12.80;99.90;;;;;;5012899;28;20509;-82
2022/07/09 01:14:50;;;;;;;10.63;3.70;;;12.90;99.90;;;;;;5012922;28;20076;-80
2022/07/09 01:17:16;;;;;;;10.63;4.20;;;12.90;99.90;;;;;;5013219;28;20026;-82
2022/07/09 01:19:42;;;;;;;9.07;4.18;;;12.80;99.90;;;;;;5012624;28;20026;-81
2022/07/09 01:22:09;;;;;;;10.50;4.05;;;12.80;99.90;;;;;;5013069;28;20026;-83
2022/07/09 01:24:34;;;;;;;5.38;3.30;;;12.80;99.90;;;;;;5027766;28;20030;-81
2022/07/09 01:27:00;;;;;;;7.40;3.38;;;12.80;99.90;;;;;;5012370;28;20215;-81
2022/07/09 01:29:26;;;;;;;12.93;3.75;;;12.90;99.90;;;;;;5012590;28;20420;-81
2022/07/09 01:31:52;;;;;;;11.43;3.72;;;12.90;99.90;;;;;;5012613;28;20072;-82
2022/07/09 01:34:17;;;;;;;10.00;3.95;;;12.80;99.90;;;;;;5012180;28;20030;-82
2022/07/09 01:36:44;;;;;;;6.63;3.55;;;12.80;99.90;;;;;;5011548;28;20116;-84
2022/07/09 01:39:09;;;;;;;8.73;3.85;;;12.90;99.90;;;;;;5012614;28;20465;-81
2022/07/09 01:41:35;;;;;;;6.97;4.15;;;12.90;99.90;;;;;;5012393;28;20026;-83
2022/07/09 01:44:01;;;;;;;8.50;4.45;;;12.90;99.90;;;;;;5011911;28;20080;-82
2022/07/09 01:46:27;;;;;;;5.60;3.67;;;12.90;99.90;;;;;;5012875;28;20053;-82
2022/07/09 01:48:52;;;;;;;7.07;4.30;;;12.90;99.90;;;;;;5011957;28;20041;-83
2022/07/09 01:51:18;;;;;;;10.45;4.25;;;12.80;99.90;;;;;;5012470;28;20030;-82
2022/07/09 01:53:45;;;;;;;4.32;3.40;;;12.90;99.90;;;;;;5011069;28;20017;-83
2022/07/09 01:56:12;;;;;;;24.05;4.78;;;12.80;99.90;;;;;;5011307;28;20418;-82
2022/07/09 01:58:38;;;;;;;8.68;4.65;;;12.80;99.90;;;;;;5011965;28;20022;-84
2022/07/09 02:01:04;;;;;;;11.07;4.40;;;12.80;99.90;;;;;;5001466;28;20030;-80
2022/07/09 02:03:30;;;;;;;12.80;4.18;;;12.80;99.90;;;;;;5002710;28;20105;-81
2022/07/09 02:05:56;;;;;;;8.05;4.00;;;12.80;99.90;;;;;;5001925;28;20065;-83
2022/07/09 02:08:22;;;;;;;6.13;4.22;;;12.80;99.90;;;;;;5000681;28;20037;-83
2022/07/09 02:10:49;;;;;;;5.95;3.80;;;12.80;99.90;;;;;;5000833;28;20469;-82
2022/07/09 02:13:15;;;;;;;5.07;4.25;;;12.80;99.90;;;;;;5001526;28;20037;-82
2022/07/09 02:15:40;;;;;;;10.30;3.60;;;12.80;99.90;;;;;;5001622;28;20401;-82
2022/07/09 02:18:06;;;;;;;5.40;4.13;;;12.80;99.90;;;;;;5002072;28;20038;-81
2022/07/09 02:20:32;;;;;;;8.77;4.47;;;12.70;99.90;;;;;;5001034;28;20120;-81
2022/07/09 02:22:58;;;;;;;9.93;3.83;;;12.70;99.90;;;;;;5010420;28;20080;-84
2022/07/09 02:25:23;;;;;;;7.68;3.58;;;12.70;99.90;;;;;;5009479;28;20052;-82
2022/07/09 02:27:49;;;;;;;7.15;4.00;;;12.70;99.90;;;;;;5002288;28;20061;-83
2022/07/09 02:30:15;;;;;;;10.18;4.13;;;12.70;99.90;;;;;;5000803;28;20026;-81
2022/07/09 02:32:40;;;;;;;7.40;4.03;;;12.80;99.90;;;;;;5001981;28;20485;-84
2022/07/09 02:35:07;;;;;;;7.95;4.10;;;12.80;99.90;;;;;;5004220;28;20069;-83
2022/07/09 02:37:33;;;;;;;5.97;3.88;;;12.80;99.90;;;;;;5001907;28;20057;-83
2022/07/09 02:39:59;;;;;;;8.60;4.15;;;12.80;99.90;;;;;;5000765;28;20026;-83
2022/07/09 02:42:25;;;;;;;8.00;3.72;;;12.80;99.90;;;;;;5000107;28;20042;-84
2022/07/09 02:44:51;;;;;;;8.10;3.83;;;12.90;99.90;;;;;;5000057;28;20037;-82
2022/07/09 02:47:16;;;;;;;12.95;4.68;;;12.90;99.90;;;;;;5001076;28;20249;-80
2022/07/09 02:49:42;;;;;;;5.60;3.72;;;12.90;99.90;;;;;;5001146;28;20077;-84
2022/07/09 02:52:08;;;;;;;8.48;3.42;;;12.90;99.90;;;;;;5005407;28;20108;-81
2022/07/09 02:54:34;;;;;;;10.85;4.32;;;12.90;99.90;;;;;;5010031;28;20048;-81
2022/07/09 02:57:00;;;;;;;6.13;4.50;;;12.90;99.90;;;;;;5010092;28;20500;-83
2022/07/09 02:59:26;;;;;;;7.38;3.83;;;12.90;99.90;;;;;;5008596;28;20033;-84
2022/07/09 03:01:52;;;;;;;9.50;3.72;;;12.90;99.90;;;;;;5010974;28;20030;-83
2022/07/09 03:04:18;;;;;;;5.25;4.18;;;12.90;99.90;;;;;;5010680;28;20409;-81
2022/07/09 03:06:43;;;;;;;5.88;3.33;;;12.90;99.90;;;;;;5009559;28;20018;-83
2022/07/09 03:09:09;;;;;;;11.63;3.58;;;12.90;99.90;;;;;;5025942;28;20036;-84
2022/07/09 03:11:35;;;;;;;7.35;3.90;;;12.80;99.90;;;;;;5010972;28;20048;-82
2022/07/09 03:14:01;;;;;;;8.23;3.65;;;12.70;99.90;;;;;;5010765;28;20026;-81
2022/07/09 03:16:27;;;;;;;6.88;3.80;;;12.70;99.90;;;;;;5011154;28;20036;-81
2022/07/09 03:18:52;;;;;;;5.65;3.92;;;12.70;99.90;;;;;;5010881;28;20064;-84
2022/07/09 03:21:18;;;;;;;4.80;4.22;;;12.70;99.90;;;;;;5011102;28;20030;-84
2022/07/09 03:23:44;;;;;;;6.50;3.97;;;12.80;99.90;;;;;;5010929;28;20523;-82
2022/07/09 03:26:09;;;;;;;8.93;4.43;;;12.80;99.90;;;;;;5010886;28;20034;-80
2022/07/09 03:28:35;;;;;;;4.03;3.53;;;12.80;99.90;;;;;;5010779;28;20385;-81
2022/07/09 03:31:01;;;;;;;8.32;4.10;;;12.90;99.90;;;;;;5010748;28;20116;-83
2022/07/09 03:33:27;;;;;;;5.30;3.47;;;12.90;99.90;;;;;;5010718;28;20065;-80
2022/07/09 03:35:55;;;;;;;6.93;3.63;;;13.00;99.90;;;;;;5009727;28;20441;-83
2022/07/09 03:38:21;;;;;;;12.57;4.75;;;13.00;99.90;;;;;;5009363;28;20025;-84
2022/07/09 03:40:46;;;;;;;6.85;3.38;;;13.10;99.90;;;;;;5009295;28;20038;-81
2022/07/09 03:43:12;;;;;;;7.10;3.42;;;13.10;99.90;;;;;;5010778;28;20156;-82
2022/07/09 03:45:38;;;;;;;4.70;3.03;;;13.10;99.90;;;;;;5010356;28;20025;-81
2022/07/09 03:48:04;;;;;;;4.03;3.53;;;13.10;99.90;;;;;;5010485;28;20052;-82
2022/07/09 03:50:31;;;;;;;5.57;3.97;;;13.00;99.90;;;;;;5010727;28;20029;-81
2022/07/09 03:52:57;;;;;;;8.77;4.40;;;12.90;99.90;;;;;;5009522;28;20060;-81
2022/07/09 03:55:23;;;;;;;6.70;3.35;;;12.90;99.90;;;;;;5010384;28;20021;-82
2022/07/09 03:57:49;;;;;;;8.68;5.45;;;12.90;99.90;;;;;;5010648;28;20389;-83
2022/07/09 04:00:14;;;;;;;6.38;4.03;;;13.00;99.90;;;;;;5010593;28;20041;-83
2022/07/09 04:02:40;;;;;;;8.48;3.70;;;13.00;99.90;;;;;;5010258;28;20030;-81
2022/07/09 04:05:07;;;;;;;12.65;4.70;;;13.10;99.90;;;;;;5025782;28;20555;-83
2022/07/09 04:07:32;;;;;;;9.50;3.80;;;13.10;99.90;;;;;;5010664;28;20032;-82
2022/07/09 04:09:58;;;;;;;8.15;3.38;;;13.10;99.90;;;;;;5020073;28;20093;-83
2022/07/09 04:12:24;;;;;;;12.43;3.70;;;13.20;99.90;;;;;;5029564;28;20018;-80
2022/07/09 04:14:49;;;;;;;7.97;3.50;;;13.20;99.90;;;;;;5029350;28;20030;-84
2022/07/09 04:17:15;;;;;;;7.97;4.07;;;13.30;99.90;;;;;;5028789;28;20029;-82
2022/07/09 04:19:41;;;;;;;8.13;3.60;;;13.30;99.90;;;;;;5028749;28;20030;-80
2022/07/09 04:22:06;;;;;;;6.72;3.63;;;13.40;99.90;;;;;;5027957;28;20041;-80
2022/07/09 04:24:32;;;;;;;6.80;3.90;;;13.40;99.90;;;;;;5028288;28;20524;-83
2022/07/09 04:26:58;;;;;;;8.05;4.45;;;13.40;99.90;;;;;;5020069;28;20168;-84
2022/07/09 04:29:24;;;;;;;8.00;3.50;;;13.50;99.90;;;;;;5010692;28;20080;-83
2022/07/09 04:31:49;;;;;;;7.38;4.05;;;13.50;99.90;;;;;;5010506;28;20033;-81
2022/07/09 04:34:15;;;;;;;6.65;3.10;;;13.60;99.90;;;;;;5025187;28;20026;-80
2022/07/09 04:36:41;;;;;;;6.97;3.83;;;13.60;99.90;;;;;;5010191;28;20026;-82
2022/07/09 04:39:07;;;;;;;9.07;3.97;;;13.60;99.90;;;;;;5010166;28;20025;-83
2022/07/09 04:41:33;;;;;;;9.30;4.07;;;13.60;99.90;;;;;;5010179;28;20034;-82
2022/07/09 04:43:59;;;;;;;6.72;3.50;;;13.70;99.90;;;;;;5012342;28;20060;-81
2022/07/09 04:46:26;;;;;;;7.43;3.72;;;13.70;99.90;;;;;;5012530;28;20049;-81
2022/07/09 04:48:52;;;;;;;7.38;3.35;;;13.90;99.90;;;;;;5013327;28;20173;-80
2022/07/09 04:51:18;;;;;;;9.70;3.95;;;14.00;99.90;;;;;;5013423;28;20105;-81
2022/07/09 04:53:44;;;;;;;5.80;3.60;;;14.10;99.90;;;;;;5013551;28;20022;-80
2022/07/09 04:56:09;;;;;;;8.20;3.17;;;14.00;99.90;;;;;;5012108;28;20026;-81
2022/07/09 04:58:36;;;;;;;5.63;3.38;;;14.00;99.90;;;;;;5012348;28;20033;-83
2022/07/09 05:01:03;;;;;;;10.25;3.58;;;14.10;99.90;;;;;;5013077;28;20022;-84
2022/07/09 05:03:28;;;;;;;7.88;3.67;;;14.30;99.90;;;;;;5013495;28;20388;-81
2022/07/09 05:05:54;;;;;;;5.72;3.58;;;14.30;99.90;;;;;;5012810;28;20037;-84
2022/07/09 05:08:20;;;;;;;6.85;3.83;;;14.40;99.90;;;;;;5013502;28;20457;-82
2022/07/09 05:10:46;;;;;;;7.57;4.07;;;14.30;99.90;;;;;;5012884;28;20440;-80
2022/07/09 05:13:12;;;;;;;9.73;4.18;;;14.30;99.90;;;;;;5013005;28;20028;-80
2022/07/09 05:15:38;;;;;;;6.60;3.38;;;14.40;99.90;;;;;;5013472;28;20092;-81
2022/07/09 05:18:04;;;;;;;5.35;2.80;;;14.50;99.90;;;;;;5011687;28;20044;-81
2022/07/09 05:20:29;;;;;;;5.63;3.30;;;14.70;99.90;;;;;;5013007;28;20029;-82
2022/07/09 05:22:55;;;;;;;5.97;3.55;;;14.80;99.90;;;;;;5013004;28;20112;-82
2022/07/09 05:25:21;;;;;;;4.38;3.17;;;14.80;99.90;;;;;;5012909;28;20026;-82
2022/07/09 05:27:47;;;;;;;6.30;3.13;;;14.90;99.90;;;;;;5013062;28;20489;-83
2022/07/09 05:30:14;;;;;;;5.75;3.10;;;15.00;99.90;;;;;;5012679;28;20108;-81
2022/07/09 05:32:41;;;;;;;6.78;3.50;;;15.20;99.90;;;;;;5012776;28;20018;-84
2022/07/09 05:35:07;;;;;;;4.65;3.05;;;15.10;99.90;;;;;;5012708;28;20030;-80
2022/07/09 05:37:34;;;;;;;8.02;3.08;;;15.10;99.90;;;;;;5027901;28;20425;-83
2022/07/09 05:40:05;;;;;;;4.47;2.55;;;15.20;99.90;;;;;;5011014;28;20030;-82
2022/07/09 05:42:32;;;;;;;9.27;2.90;;;15.30;99.90;;;;;;5027518;28;20037;-83
2022/07/09 05:44:58;;;;;;;7.13;3.13;;;15.50;99.90;;;;;;5011120;28;20038;-82
2022/07/09 05:47:25;;;;;;;5.88;3.17;;;15.70;99.90;;;;;;5012381;28;20037;-81
2022/07/09 05:49:50;;;;;;;5.32;3.05;;;15.60;99.90;;;;;;5012191;28;20024;-84
2022/07/09 05:52:16;;;;;;;5.93;3.72;;;15.80;99.90;;;;;;5012287;28;20105;-83
2022/07/09 05:54:42;;;;;;;8.95;3.05;;;15.80;99.90;;;;;;5011064;28;20512;-83
2022/07/09 05:57:07;;;;;;;7.03;3.17;;;15.90;99.90;;;;;;5012334;28;20033;-82
2022/07/09 05:59:33;;;;;;;6.75;2.63;;;15.80;99.90;;;;;;5010873;28;20022;-82
2022/07/09 06:01:59;;;;;;;6.03;3.13;;;16.00;99.90;;;;;;5011819;28;20041;-82
2022/07/09 06:04:26;;;;;;;5.57;2.80;;;16.00;99.90;;;;;;5011997;28;20030;-80
2022/07/09 06:06:52;;;;;;;5.97;3.00;;;16.00;99.90;;;;;;5010734;28;20030;-82
2022/07/09 06:09:17;;;;;;;7.03;4.38;;;16.10;99.90;;;;;;5012286;28;20018;-83
2022/07/09 06:11:43;;;;;;;12.95;3.55;;;16.10;99.90;;;;;;5011912;28;20041;-80
2022/07/09 06:14:08;;;;;;;6.45;3.00;;;16.20;99.90;;;;;;5011687;28;20034;-81
2022/07/09 06:16:34;;;;;;;10.07;4.22;;;16.20;99.90;;;;;;5012129;28;20080;-83
2022/07/09 06:19:00;;;;;;;9.80;3.00;;;16.30;99.90;;;;;;5012105;28;20484;-84
2022/07/09 06:21:25;;;;;;;7.63;2.75;;;16.30;99.90;;;;;;5011470;28;20037;-82
2022/07/09 06:23:51;;;;;;;13.95;3.15;;;16.50;99.90;;;;;;5011711;28;20097;-83
2022/07/09 06:26:17;;;;;;;5.65;3.13;;;16.50;99.90;;;;;;5011079;28;20393;-80
2022/07/09 06:28:42;;;;;;;9.13;3.03;;;16.70;99.90;;;;;;5011249;28;20048;-84
2022/07/09 06:31:08;;;;;;;12.80;3.28;;;16.90;99.90;;;;;;5011711;28;20017;-83
2022/07/09 06:33:34;;;;;;;6.03;2.90;;;16.90;99.90;;;;;;5001583;28;20072;-81
2022/07/09 06:35:59;;;;;;;10.63;2.58;;;17.10;99.90;;;;;;5002776;28;20037;-81
2022/07/09 06:38:29;;;;;;;3.47;2.35;;;17.20;99.90;;;;;;5010460;28;20527;-82
2022/07/09 06:40:55;;;;;;;4.88;2.45;;;17.40;99.90;;;;;;5011735;28;20504;-81
2022/07/09 06:43:21;;;;;;;5.28;2.22;;;17.50;99.90;;;;;;5011643;28;20022;-83
2022/07/09 06:45:47;;;;;;;5.70;2.55;;;17.30;99.90;;;;;;5011566;28;20026;-83
2022/07/09 06:48:13;;;;;;;4.13;2.40;;;17.70;99.90;;;;;;5009892;28;20096;-81
2022/07/09 06:50:38;;;;;;;4.50;2.30;;;17.80;99.90;;;;;;5011256;28;20469;-82
2022/07/09 06:53:04;;;;;;;6.93;2.25;;;17.90;99.90;;;;;;5011861;28;20100;-81
2022/07/09 06:55:30;;;;;;;5.25;2.10;;;18.00;99.90;;;;;;5009858;28;20060;-81
2022/07/09 06:57:57;;;;;;;7.03;1.95;;;18.00;99.90;;;;;;5009976;28;20567;-81
2022/07/09 07:00:23;;;;;;;3.97;2.03;;;17.90;99.90;;;;;;5011322;28;20026;-82
2022/07/09 07:02:49;;;;;;;6.32;2.28;;;17.80;99.90;;;;;;5011145;28;20480;-83
2022/07/09 07:05:15;;;;;;;7.03;2.20;;;17.70;99.90;;;;;;5010414;28;20405;-83
2022/07/09 07:07:41;;;;;;;6.25;2.28;;;17.60;99.90;;;;;;5010770;28;20188;-80
2022/07/09 07:10:08;;;;;;;5.50;1.80;;;17.60;99.90;;;;;;5011236;28;20473;-83
2022/07/09 07:12:34;;;;;;;4.05;2.13;;;17.50;99.90;;;;;;5010989;28;20072;-80
2022/07/09 07:15:00;;;;;;;5.05;2.10;;;17.40;99.90;;;;;;5011112;28;20484;-83
2022/07/09 07:17:26;;;;;;;5.55;1.95;;;17.50;99.90;;;;;;5010911;28;20381;-81
2022/07/09 07:19:51;;;;;;;5.30;1.77;;;17.40;99.90;;;;;;5010924;28;20504;-81
2022/07/09 07:22:17;;;;;;;5.32;2.40;;;17.40;99.90;;;;;;5011184;28;20481;-83
2022/07/09 07:24:42;;;;;;;4.38;2.30;;;17.20;99.90;;;;;;5010257;28;20026;-83
2022/07/09 07:27:08;;;;;;;7.28;2.05;;;17.10;99.90;;;;;;5009565;28;20029;-84
2022/07/09 07:29:34;;;;;;;4.82;1.90;;;17.00;99.90;;;;;;5025863;28;20028;-83
2022/07/09 07:31:59;;;;;;;5.28;2.05;;;17.00;99.90;;;;;;5010801;28;20037;-83
2022/07/09 07:34:31;;;;;;;4.57;1.90;;;17.00;99.90;;;;;;5010659;28;20029;-84
2022/07/09 07:36:57;;;;;;;4.10;2.05;;;16.90;99.90;;;;;;5010506;28;20657;-83
2022/07/09 07:39:24;;;;;;;5.88;2.10;;;16.90;99.90;;;;;;5010658;28;20030;-81
2022/07/09 07:41:50;;;;;;;3.97;1.90;;;16.90;99.90;;;;;;5010948;28;20022;-84
2022/07/09 07:44:16;;;;;;;7.85;2.67;;;17.00;99.90;;;;;;5010380;28;20113;-83
2022/07/09 07:46:41;;;;;;;8.65;2.40;;;17.00;99.90;;;;;;5010404;28;20492;-81
2022/07/09 07:49:07;;;;;;;8.38;3.25;;;17.10;99.90;;;;;;5010724;28;20022;-81
2022/07/09 07:51:33;;;;;;;7.38;2.30;;;17.20;99.90;;;;;;5009352;28;20049;-83
2022/07/09 07:53:58;;;;;;;3.38;1.83;;;17.50;99.90;;;;;;5009308;28;20501;-84
2022/07/09 07:56:24;;;;;;;7.30;2.70;;;17.60;99.90;;;;;;5010115;28;20034;-82
2022/07/09 07:58:50;;;;;;;4.53;2.08;;;17.80;99.90;;;;;;5010976;28;20077;-82
2022/07/09 08:01:18;;;;;;;6.85;2.00;;;17.80;99.90;;;;;;5010359;28;20068;-83
2022/07/09 08:03:44;;;;;;;5.65;1.70;;;17.80;99.90;;;;;;5010710;28;20109;-82
2022/07/09 08:06:10;;;;;;;6.47;1.85;;;17.80;99.90;;;;;;5010402;28;20121;-82
2022/07/09 08:08:36;;;;;;;4.53;1.65;;;17.80;99.90;;;;;;5010631;28;20026;-82
2022/07/09 08:11:02;;;;;;;5.20;1.70;;;17.70;99.90;;;;;;5010581;28;20021;-81
2022/07/09 08:13:28;;;;;;;5.78;2.13;;;17.60;99.90;;;;;;5010296;28;20069;-82
2022/07/09 08:15:54;;;;;;;5.57;1.70;;;17.50;99.90;;;;;;5010300;28;20036;-81
2022/07/09 08:18:20;;;;;;;5.28;2.10;;;17.50;99.90;;;;;;5013555;28;20376;-81
2022/07/09 08:20:47;;;;;;;4.00;1.83;;;17.60;99.90;;;;;;5012831;28;20037;-83
2022/07/09 08:23:13;;;;;;;6.53;2.20;;;17.60;99.90;;;;;;5014198;28;20026;-84
2022/07/09 08:25:38;;;;;;;6.18;2.38;;;17.60;99.90;;;;;;5014498;28;20033;-82
2022/07/09 08:28:04;;;;;;;10.00;3.00;;;17.60;99.90;;;;;;5012794;28;20390;-83
2022/07/09 08:30:30;;;;;;;4.82;2.30;;;17.70;99.90;;;;;;5013933;28;20022;-80
2022/07/09 08:32:56;;;;;;;6.47;2.53;;;17.70;99.90;;;;;;5013901;28;20026;-83
2022/07/09 08:35:22;;;;;;;3.60;1.63;;;17.90;99.90;;;;;;5013669;28;20028;-81
2022/07/09 08:37:48;;;;;;;6.03;2.30;;;18.00;99.90;;;;;;5015441;28;20026;-82
2022/07/09 08:40:13;;;;;;;7.13;2.60;;;18.00;99.90;;;;;;5014358;28;20025;-82
2022/07/09 08:42:42;;;;;;;3.85;2.03;;;18.20;99.90;;;;;;5012294;28;20018;-83
2022/07/09 08:45:12;;;;;;;3.58;2.05;;;18.00;99.90;;;;;;5015845;28;20029;-81
2022/07/09 08:47:39;;;;;;;9.57;2.35;;;18.20;99.90;;;;;;5012232;28;20487;-82
2022/07/09 08:50:05;;;;;;;8.40;2.25;;;18.00;99.90;;;;;;5014631;28;20388;-80
2022/07/09 08:52:32;;;;;;;6.70;2.00;;;18.10;99.90;;;;;;5014649;28;20170;-82
2022/07/09 08:54:58;;;;;;;5.25;1.95;;;18.00;99.90;;;;;;5014556;28;20101;-80
2022/07/09 08:57:23;;;;;;;6.47;2.35;;;18.20;99.90;;;;;;5010332;28;20026;-81
2022/07/09 08:59:49;;;;;;;7.40;2.40;;;18.30;99.90;;;;;;5009035;28;20080;-82
2022/07/09 09:02:15;;;;;;;4.78;2.17;;;18.40;99.90;;;;;;5012341;28;20026;-80
2022/07/09 09:04:41;;;;;;;4.35;2.40;;;18.50;99.90;;;;;;5013367;28;20493;-83
2022/07/09 09:07:13;;;;;;;5.82;2.25;;;18.30;99.90;;;;;;5012396;28;20057;-83
2022/07/09 09:09:39;;;;;;;5.47;2.33;;;18.30;99.90;;;;;;5012569;28;20069;-80
2022/07/09 09:12:05;;;;;;;8.45;2.97;;;18.50;99.90;;;;;;5009851;28;20052;-83
2022/07/09 09:14:31;;;;;;;13.80;1.90;;;18.50;99.90;;;;;;5006208;28;20022;-84
2022/07/09 09:17:11;;;;;;;3.97;1.80;;;18.60;99.90;;;;;;4993063;28;20029;-83
2022/07/09 09:19:38;;;;;;;2.97;2.00;;;18.80;99.90;;;;;;5007323;28;20470;-83
2022/07/09 09:22:05;;;;;;;10.43;2.72;;;18.70;99.90;;;;;;4995390;28;20029;-81
2022/07/09 09:24:31;;;;;;;5.40;2.25;;;18.70;99.90;;;;;;4993255;28;20481;-81
2022/07/09 09:27:02;;;;;;;5.43;1.90;;;18.60;99.90;;;;;;4991805;28;20042;-83
2022/07/09 09:29:28;;;;;;;5.07;2.25;;;18.70;99.80;;;;;;4993462;28;20076;-83
2022/07/09 09:31:54;;;;;;;8.98;2.42;;;18.80;99.90;;;;;;5011242;28;20026;-81
2022/07/09 09:34:21;;;;;;;13.10;2.67;;;19.10;99.50;;;;;;5010258;28;20511;-81
2022/07/09 09:36:50;;;;;;;7.93;2.53;;;19.00;98.30;;;;;;5010020;28;20033;-82
2022/07/09 09:39:27;;;;;;;10.20;2.40;;;19.10;99.60;;;;;;5012103;28;20021;-83
2022/07/09 09:41:54;;;;;;;6.20;1.98;;;19.00;98.60;;;;;;5027687;28;20030;-82
2022/07/09 09:44:26;;;;;;;3.97;1.65;;;19.10;99.10;;;;;;5012366;28;20022;-84
2022/07/09 09:46:52;;;;;;;4.13;1.70;;;19.20;98.40;;;;;;5009385;28;20026;-82
2022/07/09 09:49:19;;;;;;;3.97;1.77;;;19.60;99.90;;;;;;5000336;28;20024;-81
2022/07/09 09:51:51;;;;;;;8.75;2.55;;;19.80;98.60;;;;;;5011381;28;20422;-80
2022/07/09 09:54:19;;;;;;;6.20;1.83;;;19.80;98.60;;;;;;5001753;28;20133;-82
2022/07/09 09:56:45;;;;;;;5.22;1.95;;;19.80;98.30;;;;;;5007775;28;20022;-80
2022/07/09 09:59:12;;;;;;;4.72;1.92;;;19.70;98.10;;;;;;5005725;28;20432;-82
2022/07/09 10:01:41;;;;;;;5.53;2.03;;;20.00;98.00;;;;;;5003442;28;20400;-83
2022/07/09 10:04:09;;;;;;;5.65;2.22;;;20.40;97.50;;;;;;4992860;28;20109;-81
2022/07/09 10:06:35;;;;;;;7.15;2.08;;;20.00;96.30;;;;;;4997627;28;20010;-81
2022/07/09 10:09:03;;;;;;;8.40;1.67;;;20.40;96.50;;;;;;5012199;28;20524;-82
2022/07/09 10:11:39;;;;;;;3.17;1.90;;;20.70;96.90;;;;;;5010851;28;20037;-83
2022/07/09 10:14:05;;;;;;;4.78;1.88;;;21.10;97.00;;;;;;5012071;28;20157;-83
2022/07/09 10:16:40;;;;;;;4.63;1.95;;;21.40;95.70;;;;;;5010481;28;20529;-81
2022/07/09 10:19:06;;;;;;;4.22;1.90;;;21.40;94.40;;;;;;5010455;28;20381;-82
2022/07/09 10:21:40;;;;;;;4.72;1.95;;;21.40;95.80;;;;;;5009692;28;20299;-81
2022/07/09 10:24:08;;;;;;;4.53;2.40;;;21.50;95.90;;;;;;5009420;28;20029;-81
2022/07/09 10:26:39;;;;;;;4.70;1.83;;;21.40;96.20;;;;;;5009684;28;20026;-84
2022/07/09 10:29:17;;;;;;;6.82;2.00;;;21.00;95.00;;;;;;5000338;28;20109;-81
2022/07/09 10:31:45;;;;;;;6.97;2.58;;;21.10;95.80;;;;;;4991239;28;20478;-81
2022/07/09 10:34:32;;;;;;;5.53;1.98;;;21.50;95.20;;;;;;4993195;28;20022;-82
2022/07/09 10:36:59;;;;;;;8.88;2.72;;;21.50;94.00;;;;;;4997646;28;20042;-80
2022/07/09 10:39:25;;;;;;;8.38;1.90;;;21.80;95.10;;;;;;4992440;28;20026;-81
2022/07/09 10:42:06;;;;;;;6.45;1.95;;;22.20;93.80;;;;;;4992707;28;20106;-83
2022/07/09 10:44:36;;;;;;;4.93;1.65;;;22.00;93.50;;;;;;4990121;28;20377;-81
2022/07/09 10:47:03;;;;;;;10.50;2.10;;;22.30;94.00;;;;;;4991972;28;20050;-82
2022/07/09 10:49:29;;;;;;;4.65;2.00;;;22.50;92.50;;;;;;4991498;28;20117;-82
2022/07/09 10:51:59;;;;;;;6.85;1.75;;;22.40;92.60;;;;;;4992286;28;20106;-82
2022/07/09 10:54:26;;;;;;;8.65;2.20;;;22.70;92.20;;;;;;4999361;28;20020;-82
2022/07/09 10:56:53;;;;;;;2.28;1.50;;;22.80;90.20;;;;;;5000034;28;20084;-82
2022/07/09 10:59:20;;;;;;;8.13;1.90;;;22.90;91.70;;;;;;5001776;28;20107;-82
2022/07/09 11:01:46;;;;;;;8.15;2.35;;;23.10;90.40;;;;;;5000546;28;20489;-81
2022/07/09 11:04:14;;;;;;;5.55;1.88;;;23.20;91.20;;;;;;4999481;28;20120;-84
2022/07/09 11:06:47;;;;;;;6.47;1.55;;;22.80;89.50;;;;;;5000425;28;20087;-81
2022/07/09 11:09:13;;;;;;;9.00;1.37;;;22.90;91.10;;;;;;5004086;28;20037;-82
2022/07/09 11:11:42;;;;;;;12.27;2.22;;;23.50;89.60;;;;;;5002102;28;20308;-84
2022/07/09 11:14:09;;;;;;;5.60;2.08;;;23.20;86.70;;;;;;5003373;28;20240;-83
2022/07/09 11:16:34;;;;;;;7.95;1.95;;;23.20;90.50;;;;;;5002509;28;20022;-83
2022/07/09 11:19:12;;;;;;;6.32;2.58;;;22.60;89.40;;;;;;5003702;28;20552;-82
2022/07/09 11:21:37;;;;;;;5.47;1.75;;;22.10;90.90;;;;;;5002875;28;20114;-82
2022/07/09 11:24:15;;;;;;;10.75;1.58;;;21.90;90.50;;;;;;5004674;28;20560;-83
2022/07/09 11:26:41;;;;;;;7.40;3.20;;;22.40;90.40;;;;;;5003979;28;20022;-83
2022/07/09 11:29:10;;;;;;;7.38;2.63;;;22.60;88.20;;;;;;5003119;28;20091;-82
2022/07/09 11:31:36;;;;;;;4.30;2.20;;;23.00;88.80;;;;;;5004183;28;20080;-83
2022/07/09 11:34:15;;;;;;;5.90;1.85;;;23.50;86.30;;;;;;5014350;28;20097;-83
2022/07/09 11:36:43;;;;;;;5.47;1.75;;;23.70;83.40;;;;;;5023309;28;20018;-82
2022/07/09 11:39:09;;;;;;;2.20;1.58;;;24.30;86.40;;;;;;5024271;28;20025;-84
2022/07/09 11:41:45;;;;;;;5.97;1.40;;;24.50;82.30;;;;;;5023435;28;20026;-84
2022/07/09 11:44:14;;;;;;;6.90;1.40;;;24.00;84.20;;;;;;5021464;28;20010;-82
2022/07/09 11:46:40;;;;;;;7.68;3.95;;;23.40;81.40;;;;;;5022395;28;20026;-81
2022/07/09 11:49:15;;;;;;;8.82;1.50;;;22.70;84.30;;;;;;5022608;28;20052;-80
2022/07/09 11:51:41;;;;;;;20.38;2.95;;;22.10;85.70;;;;;;5022983;28;20029;-82
2022/07/09 11:54:07;;;;;;;4.03;1.60;;;21.80;89.00;;;;;;5009900;28;20029;-83
2022/07/09 11:56:45;;;;;;;3.08;1.35;;;22.10;87.00;;;;;;5004694;28;20034;-83
2022/07/09 11:59:11;;;;;;;4.90;1.85;;;22.60;87.00;;;;;;5005385;28;20045;-82
2022/07/09 12:01:38;;;;;;;4.57;1.75;;;23.20;85.70;;;;;;5004700;28;20374;-84
2022/07/09 12:04:04;;;;;;;8.23;1.27;;;23.80;86.60;;;;;;5004276;28;20100;-82
2022/07/09 12:06:29;;;;;;;2.80;1.30;;;24.30;83.60;;;;;;5005260;28;20509;-82
2022/07/09 12:09:02;;;;;;;5.43;1.20;;;23.60;82.60;;;;;;5004823;28;20492;-82
2022/07/09 12:11:29;;;;;;;6.93;1.70;;;23.50;83.30;;;;;;5005271;28;20087;-81
2022/07/09 12:13:55;;;;;;;2.03;1.30;;;23.30;84.90;;;;;;5004123;28;20030;-82
2022/07/09 12:16:21;;;;;;;3.40;1.30;;;23.00;82.70;;;;;;5005007;28;20545;-82
2022/07/09 12:18:47;;;;;;;4.75;1.90;;;23.10;86.70;;;;;;5003948;28;20087;-83
2022/07/09 12:21:12;;;;;;;4.35;1.52;;;23.20;86.20;;;;;;5005086;28;20034;-82
2022/07/09 12:23:38;;;;;;;4.15;1.55;;;22.80;90.30;;;;;;5004548;28;20046;-83
2022/07/09 12:26:04;;;;;;;5.28;1.90;;;22.30;90.90;;;;;;5003780;28;20033;-83
2022/07/09 12:28:29;;;;;;;10.77;2.10;;;22.10;87.40;;;;;;5004102;28;20026;-81
2022/07/09 12:30:55;;;;;;;4.07;1.77;;;22.00;87.20;;;;;;5004811;28;20038;-83
2022/07/09 12:33:21;;;;;;;7.38;2.00;;;22.60;90.50;;;;;;5005039;28;20026;-81
2022/07/09 12:35:46;;;;;;;10.50;2.05;;;23.20;88.90;;;;;;5004396;28;20037;-83
2022/07/09 12:38:12;;;;;;;10.05;2.45;;;23.50;85.60;;;;;;5005306;28;20029;-81
2022/07/09 12:40:38;;;;;;;6.38;2.33;;;23.70;88.80;;;;;;5004125;28;20029;-82
2022/07/09 12:43:03;;;;;;;6.07;2.30;;;23.30;85.00;;;;;;5004777;28;20113;-82